createdAt,value
2019-01-21T00:01:11.110Z,-18.10
2019-01-21T00:03:43.298Z,-18.30
2019-01-21T00:06:15.901Z,-18.40
2019-01-21T00:08:48.033Z,-18.40
2019-01-21T00:11:20.809Z,-18.50
2019-01-21T00:13:54.007Z,-18.60
2019-01-21T00:16:26.332Z,-18.70
2019-01-21T00:18:58.510Z,-18.70
2019-01-21T00:21:30.589Z,-18.80
2019-01-21T00:24:02.885Z,-18.80
2019-01-21T00:26:35.157Z,-18.90
2019-01-21T00:29:10.300Z,-18.90
2019-01-21T00:31:43.099Z,-19.00
2019-01-21T00:34:15.398Z,-19.00
2019-01-21T00:36:48.150Z,-19.00
2019-01-21T00:39:20.449Z,-19.00
2019-01-21T00:41:53.005Z,-19.00
2019-01-21T00:44:25.347Z,-19.00
2019-01-21T00:46:58.188Z,-19.00
2019-01-21T00:49:30.675Z,-19.00
2019-01-21T00:52:03.151Z,-19.00
2019-01-21T00:54:38.171Z,-19.00
2019-01-21T00:57:10.532Z,-19.00
2019-01-21T00:59:42.916Z,-19.00
2019-01-21T01:02:18.120Z,-19.10
2019-01-21T01:04:50.614Z,-19.00
2019-01-21T01:07:23.489Z,-19.10
2019-01-21T01:09:55.777Z,-19.10
2019-01-21T01:12:28.622Z,-19.10
2019-01-21T01:15:01.433Z,-19.10
2019-01-21T01:17:37.305Z,-19.20
2019-01-21T01:20:09.435Z,-19.20
2019-01-21T01:22:42.148Z,-19.20
2019-01-21T01:25:14.602Z,-19.20
2019-01-21T01:27:47.380Z,-19.20
2019-01-21T01:30:20.296Z,-19.30
2019-01-21T01:32:53.190Z,-19.30
2019-01-21T01:35:25.776Z,-19.30
2019-01-21T01:38:00.513Z,-19.30
2019-01-21T01:40:34.533Z,-19.30
2019-01-21T01:43:07.216Z,-19.40
2019-01-21T01:45:42.739Z,-19.40
2019-01-21T01:48:15.437Z,-19.40
2019-01-21T01:50:48.812Z,-19.40
2019-01-21T01:53:21.482Z,-19.40
2019-01-21T01:55:53.958Z,-19.40
2019-01-21T01:58:26.420Z,-19.50
2019-01-21T02:00:58.904Z,-19.50
2019-01-21T02:03:33.254Z,-19.50
2019-01-21T02:06:05.712Z,-19.50
2019-01-21T02:08:40.520Z,-19.60
2019-01-21T02:11:13.157Z,-19.60
2019-01-21T02:13:45.684Z,-19.60
2019-01-21T02:16:18.676Z,-19.60
2019-01-21T02:18:50.960Z,-19.70
2019-01-21T02:21:25.318Z,-19.70
2019-01-21T02:24:02.487Z,-19.70
2019-01-21T02:26:42.064Z,-19.70
2019-01-21T02:29:56.124Z,-19.70
2019-01-21T02:32:47.350Z,-19.70
2019-01-21T02:35:50.108Z,-19.70
2019-01-21T02:39:29.617Z,-19.80
2019-01-21T02:42:24.722Z,-19.80
2019-01-21T02:45:23.819Z,-19.80
2019-01-21T02:48:41.058Z,-19.80
2019-01-21T02:51:40.172Z,-19.80
2019-01-21T02:54:34.560Z,-19.80
2019-01-21T02:57:31.395Z,-19.80
2019-01-21T03:00:40.001Z,-19.80
2019-01-21T03:03:44.552Z,-19.80
2019-01-21T03:06:58.479Z,-19.80
2019-01-21T03:09:54.092Z,-19.70
2019-01-21T03:13:08.925Z,-19.70
2019-01-21T03:16:43.767Z,-19.70
2019-01-21T03:19:46.789Z,-19.70
2019-01-21T03:23:08.760Z,-19.70
2019-01-21T03:26:06.974Z,-19.60
2019-01-21T03:29:22.113Z,-19.70
2019-01-21T03:32:32.607Z,-19.70
2019-01-21T03:35:40.588Z,-19.60
2019-01-21T03:38:53.800Z,-19.70
2019-01-21T03:41:55.631Z,-19.70
2019-01-21T03:44:59.111Z,-19.80
2019-01-21T03:47:42.188Z,-19.80
2019-01-21T03:51:07.293Z,-19.80
2019-01-21T03:54:23.157Z,-19.90
2019-01-21T03:57:10.318Z,-19.90
2019-01-21T03:59:49.593Z,-19.90
2019-01-21T04:02:59.322Z,-19.90
2019-01-21T04:06:30.031Z,-20.00
2019-01-21T04:09:36.074Z,-20.00
2019-01-21T04:12:46.600Z,-20.00
2019-01-21T04:15:52.915Z,-20.00
2019-01-21T04:18:47.186Z,-20.00
2019-01-21T04:21:40.555Z,-20.00
2019-01-21T04:24:50.635Z,-20.00
2019-01-21T04:27:47.149Z,-20.00
2019-01-21T04:30:55.024Z,-20.00
2019-01-21T04:34:04.905Z,-20.00
2019-01-21T04:37:15.040Z,-20.10
2019-01-21T04:40:13.202Z,-20.10
2019-01-21T04:43:05.817Z,-20.10
2019-01-21T04:45:54.916Z,-20.10
2019-01-21T04:48:50.585Z,-20.20
2019-01-21T04:52:21.942Z,-20.20
2019-01-21T04:55:06.759Z,-20.20
2019-01-21T04:58:02.521Z,-20.20
2019-01-21T05:00:57.713Z,-20.30
2019-01-21T05:03:42.705Z,-20.30
2019-01-21T05:06:42.276Z,-20.30
2019-01-21T05:09:27.048Z,-20.30
2019-01-21T05:12:34.740Z,-20.30
2019-01-21T05:15:59.552Z,-20.40
2019-01-21T05:18:48.577Z,-20.40
2019-01-21T05:21:44.996Z,-20.40
2019-01-21T05:24:43.760Z,-20.40
2019-01-21T05:28:00.337Z,-20.40
2019-01-21T05:31:24.365Z,-20.50
2019-01-21T05:34:10.357Z,-20.40
2019-01-21T05:37:05.150Z,-20.50
2019-01-21T05:40:12.826Z,-20.50
2019-01-21T05:43:18.244Z,-20.50
2019-01-21T05:46:06.135Z,-20.50
2019-01-21T05:49:08.987Z,-20.50
2019-01-21T05:52:13.811Z,-20.50
2019-01-21T05:55:15.282Z,-20.60
2019-01-21T05:58:33.574Z,-20.60
2019-01-21T06:01:30.927Z,-20.60
2019-01-21T06:04:53.417Z,-20.60
2019-01-21T06:08:17.560Z,-20.60
2019-01-21T06:11:14.065Z,-20.60
2019-01-21T06:14:33.896Z,-20.70
2019-01-21T06:17:28.762Z,-20.70
2019-01-21T06:20:40.933Z,-20.70
2019-01-21T06:23:40.966Z,-20.70
2019-01-21T06:26:47.667Z,-20.70
2019-01-21T06:29:56.765Z,-20.80
2019-01-21T06:32:58.229Z,-20.80
2019-01-21T06:35:56.313Z,-20.80
2019-01-21T06:38:49.806Z,-20.80
2019-01-21T06:41:51.742Z,-20.80
2019-01-21T06:45:07.709Z,-20.90
2019-01-21T06:48:27.923Z,-20.90
2019-01-21T06:51:30.260Z,-20.90
2019-01-21T06:54:27.765Z,-20.90
2019-01-21T06:57:51.750Z,-20.90
2019-01-21T07:00:44.366Z,-20.90
2019-01-21T07:03:53.010Z,-20.90
2019-01-21T07:07:06.807Z,-20.90
2019-01-21T07:10:27.817Z,-20.90
2019-01-21T07:13:48.741Z,-20.90
2019-01-21T07:17:06.862Z,-20.90
2019-01-21T07:19:59.505Z,-20.90
2019-01-21T07:23:11.955Z,-20.80
2019-01-21T07:26:29.940Z,-20.90
2019-01-21T07:29:37.421Z,-20.90
2019-01-21T07:32:33.433Z,-20.90
2019-01-21T07:35:34.976Z,-20.90
2019-01-21T07:38:59.036Z,-20.90
2019-01-21T07:41:46.842Z,-20.90
2019-01-21T07:44:56.950Z,-20.90
2019-01-21T07:48:18.192Z,-20.90
2019-01-21T07:51:51.221Z,-21.00
2019-01-21T07:54:57.509Z,-20.90
2019-01-21T07:57:59.945Z,-20.90
2019-01-21T08:01:18.233Z,-20.90
2019-01-21T08:04:31.470Z,-20.90
2019-01-21T08:07:30.684Z,-20.90
2019-01-21T08:11:00.760Z,-20.90
2019-01-21T08:14:11.741Z,-20.90
2019-01-21T08:17:17.669Z,-20.90
2019-01-21T08:20:32.648Z,-20.90
2019-01-21T08:23:33.249Z,-21.00
2019-01-21T08:27:06.442Z,-21.00
2019-01-21T08:30:01.221Z,-21.00
2019-01-21T08:33:17.534Z,-21.00
2019-01-21T08:36:12.625Z,-21.00
2019-01-21T08:39:20.599Z,-21.00
2019-01-21T08:42:22.778Z,-21.00
2019-01-21T08:45:22.768Z,-21.10
2019-01-21T08:48:13.873Z,-21.10
2019-01-21T08:51:30.315Z,-21.10
2019-01-21T08:54:54.234Z,-21.00
2019-01-21T08:58:05.357Z,-21.00
2019-01-21T09:01:16.882Z,-21.10
2019-01-21T09:04:13.206Z,-21.10
2019-01-21T09:07:37.003Z,-21.10
2019-01-21T09:10:32.617Z,-21.10
2019-01-21T09:13:30.969Z,-21.10
2019-01-21T09:16:52.305Z,-21.10
2019-01-21T09:20:10.909Z,-21.10
2019-01-21T09:23:08.833Z,-21.10
2019-01-21T09:26:25.426Z,-21.10
2019-01-21T09:29:32.636Z,-21.10
2019-01-21T09:32:44.072Z,-21.10
2019-01-21T09:35:58.971Z,-21.10
2019-01-21T09:39:09.353Z,-21.20
2019-01-21T09:42:03.888Z,-21.20
2019-01-21T09:45:01.217Z,-21.10
2019-01-21T09:47:30.487Z,-21.20
2019-01-21T09:50:02.734Z,-21.20
2019-01-21T09:52:35.465Z,-21.20
2019-01-21T09:55:09.188Z,-21.20
2019-01-21T09:57:42.376Z,-21.20
2019-01-21T10:00:19.073Z,-21.20
2019-01-21T10:02:57.462Z,-21.30
2019-01-21T10:05:32.600Z,-21.30
2019-01-21T10:08:40.093Z,-21.30
2019-01-21T10:11:54.092Z,-21.30
2019-01-21T10:14:54.574Z,-21.30
2019-01-21T10:18:15.792Z,-21.30
2019-01-21T10:21:43.685Z,-21.30
2019-01-21T10:24:57.280Z,-21.30
2019-01-21T10:28:02.521Z,-21.30
2019-01-21T10:31:23.569Z,-21.30
2019-01-21T10:34:34.590Z,-21.30
2019-01-21T10:37:24.730Z,-21.30
2019-01-21T10:40:20.919Z,-21.30
2019-01-21T10:43:26.614Z,-21.30
2019-01-21T10:46:10.931Z,-21.20
2019-01-21T10:49:11.730Z,-21.20
2019-01-21T10:52:29.411Z,-21.20
2019-01-21T10:55:41.237Z,-21.20
2019-01-21T10:58:22.802Z,-21.20
2019-01-21T11:01:37.872Z,-21.20
2019-01-21T11:04:44.171Z,-21.30
2019-01-21T11:08:14.438Z,-21.30
2019-01-21T11:11:14.740Z,-21.30
2019-01-21T11:14:30.066Z,-21.40
2019-01-21T11:17:36.119Z,-21.40
2019-01-21T11:20:48.613Z,-21.40
2019-01-21T11:23:54.612Z,-21.40
2019-01-21T11:26:57.297Z,-21.50
2019-01-21T11:29:58.806Z,-21.50
2019-01-21T11:33:17.700Z,-21.50
2019-01-21T11:36:41.889Z,-21.50
2019-01-21T11:39:27.148Z,-21.50
2019-01-21T11:42:17.668Z,-21.50
2019-01-21T11:45:25.355Z,-21.50
2019-01-21T11:48:31.222Z,-21.60
2019-01-21T11:51:34.961Z,-21.50
2019-01-21T11:54:50.416Z,-21.60
2019-01-21T11:57:51.093Z,-21.60
2019-01-21T12:00:43.669Z,-21.60
2019-01-21T12:03:24.301Z,-21.60
2019-01-21T12:06:21.402Z,-21.50
2019-01-21T12:09:23.444Z,-21.60
2019-01-21T12:12:35.417Z,-21.60
2019-01-21T12:15:43.057Z,-21.60
2019-01-21T12:18:31.978Z,-21.50
2019-01-21T12:22:10.813Z,-21.50
2019-01-21T12:24:52.615Z,-21.50
2019-01-21T12:27:50.341Z,-21.50
2019-01-21T12:31:08.343Z,-21.50
2019-01-21T12:34:32.536Z,-21.50
2019-01-21T12:37:42.242Z,-21.50
2019-01-21T12:40:47.785Z,-21.50
2019-01-21T12:43:46.412Z,-21.50
2019-01-21T12:58:09.599Z,-21.40
2019-01-21T13:01:14.472Z,-21.40
2019-01-21T13:04:17.164Z,-21.40
2019-01-21T13:07:28.642Z,-21.50
2019-01-21T13:10:34.693Z,-21.50
2019-01-21T13:13:47.909Z,-21.50
2019-01-21T13:16:34.459Z,-21.40
2019-01-21T13:19:33.609Z,-21.50
2019-01-21T13:22:35.290Z,-21.40
2019-01-21T13:26:02.716Z,-21.40
2019-01-21T13:29:05.646Z,-21.40
2019-01-21T13:32:12.225Z,-21.30
2019-01-21T13:35:23.298Z,-21.40
2019-01-21T13:38:51.472Z,-21.30
2019-01-21T13:41:51.659Z,-21.20
2019-01-21T13:47:50.813Z,-21.20
2019-01-21T13:50:59.962Z,-21.40
2019-01-21T13:54:04.688Z,-21.40
2019-01-21T13:56:52.051Z,-21.40
2019-01-21T14:00:05.669Z,-21.40
2019-01-21T14:03:10.855Z,-21.40
2019-01-21T14:06:19.077Z,-21.40
2019-01-21T14:12:02.042Z,-21.20
2019-01-21T14:18:47.939Z,-21.20
2019-01-21T14:21:57.422Z,-21.10
2019-01-21T14:24:50.876Z,-21.10
2019-01-21T14:30:38.240Z,-20.90
2019-01-21T14:33:27.049Z,-20.80
2019-01-21T14:36:33.068Z,-20.90
2019-01-21T14:39:40.203Z,-20.80
2019-01-21T14:42:50.643Z,-20.80
2019-01-21T14:46:11.926Z,-20.70
2019-01-21T14:49:11.767Z,-20.70
2019-01-21T14:52:41.664Z,-20.80
2019-01-21T14:55:58.070Z,-20.80
2019-01-21T14:59:00.151Z,-20.80
2019-01-21T15:01:53.578Z,-20.70
2019-01-21T15:05:03.957Z,-20.60
2019-01-21T15:07:47.868Z,-20.60
2019-01-21T15:11:01.792Z,-20.50
2019-01-21T15:13:59.941Z,-20.50
2019-01-21T15:17:04.113Z,-20.60
2019-01-21T15:20:07.563Z,-20.60
2019-01-21T15:23:02.594Z,-20.50
2019-01-21T15:26:15.166Z,-20.50
2019-01-21T15:29:10.627Z,-20.50
2019-01-21T15:32:14.740Z,-20.60
2019-01-21T15:35:20.501Z,-20.50
2019-01-21T15:38:32.652Z,-20.50
2019-01-21T15:41:55.322Z,-20.20
2019-01-21T15:44:44.335Z,-20.20
2019-01-21T15:47:33.153Z,-20.10
2019-01-21T15:50:21.557Z,-20.00
2019-01-21T15:53:06.362Z,-20.10
2019-01-21T15:55:56.411Z,-20.10
2019-01-21T15:59:05.267Z,-19.90
2019-01-21T16:02:28.470Z,-19.80
2019-01-21T16:08:03.824Z,-19.80
2019-01-21T16:11:08.433Z,-19.70
2019-01-21T16:13:51.129Z,-19.60
2019-01-21T16:17:14.940Z,-19.80
2019-01-21T16:20:00.787Z,-19.60
2019-01-21T16:23:18.558Z,-19.40
2019-01-21T16:26:33.286Z,-19.40
2019-01-21T16:30:00.257Z,-19.50
2019-01-21T16:33:13.585Z,-19.50
2019-01-21T16:36:07.068Z,-19.60
2019-01-21T16:39:10.056Z,-19.70
2019-01-21T16:42:00.112Z,-19.70
2019-01-21T16:44:32.711Z,-19.30
2019-01-21T16:47:05.751Z,-19.20
2019-01-21T16:49:38.181Z,-19.20
2019-01-21T16:52:10.905Z,-19.10
2019-01-21T16:54:43.302Z,-19.10
2019-01-21T16:57:15.961Z,-19.10
2019-01-21T16:59:53.396Z,-18.90
2019-01-21T17:02:33.908Z,-18.80
2019-01-21T17:05:08.763Z,-18.80
2019-01-21T17:07:43.603Z,-18.80
2019-01-21T17:10:18.086Z,-18.90
2019-01-21T17:12:55.010Z,-18.80
2019-01-21T17:15:30.938Z,-18.80
2019-01-21T17:18:07.987Z,-18.50
2019-01-21T17:23:17.552Z,-18.70
2019-01-21T17:25:54.479Z,-18.70
2019-01-21T17:28:32.377Z,-18.60
2019-01-21T17:31:08.072Z,-18.30
2019-01-21T17:36:44.896Z,-18.30
2019-01-21T17:39:19.776Z,-18.20
2019-01-21T17:42:20.884Z,-18.10
2019-01-21T17:44:55.510Z,-18.20
2019-01-21T17:47:30.189Z,-18.20
2019-01-21T17:50:08.272Z,-18.00
2019-01-21T17:52:40.699Z,-17.90
2019-01-21T17:55:20.844Z,-17.90
2019-01-21T17:57:53.217Z,-17.80
2019-01-21T18:00:25.709Z,-17.80
2019-01-21T18:02:58.936Z,-17.70
2019-01-21T18:05:31.278Z,-17.60
2019-01-21T18:11:47.643Z,-17.50
2019-01-21T18:14:19.870Z,-17.40
2019-01-21T18:16:52.289Z,-17.40
2019-01-21T18:19:24.586Z,-17.20
2019-01-21T18:21:58.758Z,-17.00
2019-01-21T18:24:30.912Z,-16.90
2019-01-21T18:27:05.130Z,-16.90
2019-01-21T18:32:40.817Z,-16.90
2019-01-21T18:38:31.131Z,-16.80
2019-01-21T18:41:03.555Z,-16.80
2019-01-21T18:43:35.912Z,-16.60
2019-01-21T18:46:08.382Z,-16.60
2019-01-21T18:48:44.489Z,-16.50
2019-01-21T18:51:21.060Z,-16.50
2019-01-21T18:53:53.803Z,-16.50
2019-01-21T18:56:26.433Z,-16.50
2019-01-21T18:58:58.725Z,-16.50
2019-01-21T19:01:31.009Z,-16.50
2019-01-21T19:04:03.298Z,-16.50
2019-01-21T19:06:35.761Z,-16.30
2019-01-21T19:09:11.441Z,-16.30
2019-01-21T19:11:43.833Z,-16.10
2019-01-21T19:14:16.536Z,-16.10
2019-01-21T19:16:48.667Z,-16.10
2019-01-21T19:19:20.857Z,-16.10
2019-01-21T19:21:53.753Z,-16.10
2019-01-21T19:24:26.291Z,-16.20
2019-01-21T19:26:58.498Z,-16.20
2019-01-21T19:29:31.008Z,-16.20
2019-01-21T19:32:03.721Z,-16.40
2019-01-21T19:34:36.289Z,-16.40
2019-01-21T19:37:08.661Z,-16.50
2019-01-21T19:39:41.270Z,-16.30
2019-01-21T19:42:13.769Z,-16.20
2019-01-21T19:44:46.533Z,-16.40
2019-01-21T19:47:18.729Z,-16.30
2019-01-21T19:49:51.027Z,-16.40
2019-01-21T19:52:23.250Z,-16.30
2019-01-21T19:54:56.118Z,-16.40
2019-01-21T19:57:28.397Z,-16.40
2019-01-21T20:00:00.729Z,-16.40
2019-01-21T20:02:32.762Z,-16.40
2019-01-21T20:05:05.005Z,-16.20
2019-01-21T20:07:37.577Z,-16.20
2019-01-21T20:10:11.985Z,-16.10
2019-01-21T20:12:44.328Z,-16.10
2019-01-21T20:15:17.385Z,-16.10
2019-01-21T20:17:49.431Z,-16.10
2019-01-21T20:20:26.870Z,-16.10
2019-01-21T20:22:59.376Z,-16.10
2019-01-21T20:25:31.873Z,-16.10
2019-01-21T20:28:04.029Z,-16.10
2019-01-21T20:30:36.413Z,-16.00
2019-01-21T20:33:08.751Z,-15.90
2019-01-21T20:35:41.149Z,-15.90
2019-01-21T20:38:13.241Z,-15.80
2019-01-21T20:40:48.555Z,-15.80
2019-01-21T20:43:21.185Z,-15.70
2019-01-21T20:45:53.734Z,-15.70
2019-01-21T20:48:25.889Z,-15.60
2019-01-21T20:50:58.149Z,-15.60
2019-01-21T20:53:30.173Z,-15.50
2019-01-21T20:58:38.279Z,-15.40
2019-01-21T21:01:10.324Z,-15.40
2019-01-21T21:03:42.505Z,-15.40
2019-01-21T21:06:14.714Z,-15.20
2019-01-21T21:08:46.935Z,-15.10
2019-01-21T21:11:19.628Z,-15.00
2019-01-21T21:13:52.706Z,-15.00
2019-01-21T21:16:25.245Z,-14.90
2019-01-21T21:18:57.992Z,-15.00
2019-01-21T21:21:46.382Z,-15.00
2019-01-21T21:24:23.359Z,-15.10
2019-01-21T21:26:55.923Z,-15.20
2019-01-21T21:29:29.454Z,-15.20
2019-01-21T21:32:02.770Z,-15.30
2019-01-21T21:34:35.681Z,-15.40
2019-01-21T21:37:09.484Z,-15.50
2019-01-21T21:39:41.921Z,-15.60
2019-01-21T21:42:14.790Z,-15.60
2019-01-21T21:44:47.431Z,-15.70
2019-01-21T21:47:21.799Z,-15.80
2019-01-21T21:49:54.245Z,-15.90
2019-01-21T21:52:27.962Z,-16.00
2019-01-21T21:55:00.607Z,-16.00
2019-01-21T22:03:37.113Z,-16.00
2019-01-21T22:06:11.559Z,-16.00
2019-01-21T22:08:43.859Z,-16.10
2019-01-21T22:11:20.751Z,-16.10
2019-01-21T22:14:15.299Z,-16.10
2019-01-21T22:20:18.147Z,-16.30
2019-01-21T22:25:43.051Z,-16.30
2019-01-21T22:28:15.913Z,-16.30
2019-01-21T22:30:48.424Z,-16.40
2019-01-21T22:33:21.495Z,-16.30
2019-01-21T22:35:53.853Z,-16.40
2019-01-21T22:41:02.517Z,-16.50
2019-01-21T22:43:34.660Z,-16.50
2019-01-21T22:46:06.825Z,-16.60
2019-01-21T22:48:38.866Z,-16.60
2019-01-21T22:51:11.126Z,-16.60
2019-01-21T22:53:44.488Z,-16.80
2019-01-21T22:56:17.437Z,-17.20
2019-01-21T22:58:49.951Z,-17.60
2019-01-21T23:01:28.469Z,-17.90
2019-01-21T23:04:00.789Z,-18.10
2019-01-21T23:06:33.134Z,-18.30
2019-01-21T23:09:06.791Z,-18.50
2019-01-21T23:11:39.239Z,-18.60
2019-01-21T23:14:11.948Z,-18.50
2019-01-21T23:16:44.199Z,-18.40
2019-01-21T23:19:30.861Z,-18.50
2019-01-21T23:22:06.976Z,-18.70
2019-01-21T23:24:45.362Z,-18.80
2019-01-21T23:27:14.545Z,-18.90
2019-01-21T23:29:47.141Z,-19.00
2019-01-21T23:32:19.797Z,-19.10
2019-01-21T23:34:52.251Z,-19.20
2019-01-21T23:37:25.169Z,-19.10
2019-01-21T23:39:57.491Z,-19.10
2019-01-21T23:42:30.250Z,-19.20
2019-01-21T23:45:02.470Z,-19.20
2019-01-21T23:47:36.559Z,-19.30
2019-01-21T23:50:15.358Z,-19.30
2019-01-21T23:52:55.694Z,-19.20
2019-01-21T23:55:27.513Z,-19.10
2019-01-21T23:58:04.784Z,-19.00
